Startpagina
METAR-TAF:

METAR-TAF

Vliegvelden :

Lannion, Frankrijk

breedte: 48-45N, lengte: 003-28W, hoogte: 89 m

Actueel weer

Dit bericht is 18 minuten geleden gemaakt, om 13:00 UTC
Wind 11 kt uit het oostnoordoosten, variërend tussen het noorden en het oosten
Temperatuur 24°C
Vochtigheid 34%
Druk 1018 hPa
Zicht 10 km of meer
geen wolken onder 1500 m en geen cumulonimbus

METAR: LFRO 301300Z AUTO 06011KT 010V100 CAVOK 24/07 Q1018

Tijdstip: 15:18 (13:18 UTC)


TAF: ontbreekt

Waarnemingen en weersverwachtingen van meer dan 4000 vliegvelden (METAR en TAF).

De beschikbare stations zijn de gele en rode punten op de kaart.

Ga met uw muis naar het station om de naam te zien.

Klik dan om waarnemingen en weersverwachtingen te zien.

kaart wijzigen: klik op de groene knoppen met een zwart kruis om in te zoomen, op de groene knop met een streepje om uit te zoomen of op de groene pijlen voor aangrenzende kaarten.


METAR-TAF: